sensor_id;sensor_type;location;lat;lon;timestamp;P1;durP1;ratioP1;P2;durP2;ratioP2
763;SDS011;5393;48.728;9.140;2022-10-16T00:01:05;3.00;;;1.93;;
763;SDS011;5393;48.728;9.140;2022-10-16T00:03:50;2.33;;;1.30;;
763;SDS011;5393;48.728;9.140;2022-10-16T00:06:35;3.30;;;1.27;;
763;SDS011;5393;48.728;9.140;2022-10-16T00:09:20;2.87;;;1.40;;
763;SDS011;5393;48.728;9.140;2022-10-16T00:12:04;2.77;;;1.40;;
763;SDS011;5393;48.728;9.140;2022-10-16T00:14:50;4.00;;;1.70;;
763;SDS011;5393;48.728;9.140;2022-10-16T00:17:36;2.43;;;1.40;;
763;SDS011;5393;48.728;9.140;2022-10-16T00:20:20;2.40;;;1.30;;
763;SDS011;5393;48.728;9.140;2022-10-16T00:23:05;1.93;;;1.37;;
763;SDS011;5393;48.728;9.140;2022-10-16T00:25:59;2.90;;;1.63;;
763;SDS011;5393;48.728;9.140;2022-10-16T00:28:47;2.50;;;1.77;;
763;SDS011;5393;48.728;9.140;2022-10-16T00:31:32;3.40;;;1.60;;
763;SDS011;5393;48.728;9.140;2022-10-16T00:34:17;4.23;;;1.57;;
763;SDS011;5393;48.728;9.140;2022-10-16T00:37:02;4.00;;;1.43;;
763;SDS011;5393;48.728;9.140;2022-10-16T00:39:47;3.50;;;1.67;;
763;SDS011;5393;48.728;9.140;2022-10-16T00:42:31;3.30;;;1.83;;
763;SDS011;5393;48.728;9.140;2022-10-16T00:45:16;5.00;;;1.80;;
763;SDS011;5393;48.728;9.140;2022-10-16T00:48:01;3.20;;;1.73;;
763;SDS011;5393;48.728;9.140;2022-10-16T00:50:45;3.07;;;1.30;;
763;SDS011;5393;48.728;9.140;2022-10-16T00:53:30;2.17;;;1.43;;
763;SDS011;5393;48.728;9.140;2022-10-16T00:56:15;2.43;;;1.40;;
763;SDS011;5393;48.728;9.140;2022-10-16T00:59:01;4.10;;;1.90;;
763;SDS011;5393;48.728;9.140;2022-10-16T01:01:48;2.47;;;1.57;;
763;SDS011;5393;48.728;9.140;2022-10-16T01:04:40;2.90;;;1.70;;
763;SDS011;5393;48.728;9.140;2022-10-16T01:10:20;3.20;;;1.87;;
763;SDS011;5393;48.728;9.140;2022-10-16T01:13:11;3.57;;;1.70;;
763;SDS011;5393;48.728;9.140;2022-10-16T01:15:59;2.97;;;1.73;;
763;SDS011;5393;48.728;9.140;2022-10-16T01:18:47;2.03;;;1.80;;
763;SDS011;5393;48.728;9.140;2022-10-16T01:21:38;3.00;;;1.70;;
763;SDS011;5393;48.728;9.140;2022-10-16T01:24:27;6.57;;;2.23;;
763;SDS011;5393;48.728;9.140;2022-10-16T01:27:24;4.90;;;2.07;;
763;SDS011;5393;48.728;9.140;2022-10-16T01:30:12;2.40;;;1.60;;
763;SDS011;5393;48.728;9.140;2022-10-16T01:33:19;2.50;;;1.90;;
763;SDS011;5393;48.728;9.140;2022-10-16T01:36:15;2.50;;;1.87;;
763;SDS011;5393;48.728;9.140;2022-10-16T01:39:01;3.23;;;2.50;;
763;SDS011;5393;48.728;9.140;2022-10-16T01:41:47;3.30;;;2.57;;
763;SDS011;5393;48.728;9.140;2022-10-16T01:44:33;4.50;;;2.90;;
763;SDS011;5393;48.728;9.140;2022-10-16T01:47:21;2.57;;;2.00;;
763;SDS011;5393;48.728;9.140;2022-10-16T01:50:07;3.87;;;2.20;;
763;SDS011;5393;48.728;9.140;2022-10-16T01:52:52;3.80;;;2.30;;
763;SDS011;5393;48.728;9.140;2022-10-16T01:55:41;3.03;;;2.17;;
763;SDS011;5393;48.728;9.140;2022-10-16T01:58:28;4.77;;;2.20;;
763;SDS011;5393;48.728;9.140;2022-10-16T02:01:19;3.23;;;2.10;;
763;SDS011;5393;48.728;9.140;2022-10-16T02:04:09;3.23;;;1.77;;
763;SDS011;5393;48.728;9.140;2022-10-16T02:06:55;2.53;;;1.53;;
763;SDS011;5393;48.728;9.140;2022-10-16T02:09:39;3.37;;;1.73;;
763;SDS011;5393;48.728;9.140;2022-10-16T02:15:08;4.33;;;2.00;;
763;SDS011;5393;48.728;9.140;2022-10-16T02:17:53;2.57;;;1.87;;
763;SDS011;5393;48.728;9.140;2022-10-16T02:21:25;2.67;;;1.77;;
763;SDS011;5393;48.728;9.140;2022-10-16T02:23:45;2.63;;;1.60;;
763;SDS011;5393;48.728;9.140;2022-10-16T02:26:43;2.23;;;1.40;;
763;SDS011;5393;48.728;9.140;2022-10-16T02:29:29;2.03;;;1.40;;
763;SDS011;5393;48.728;9.140;2022-10-16T02:32:15;2.70;;;1.77;;
763;SDS011;5393;48.728;9.140;2022-10-16T02:35:00;2.73;;;1.70;;
763;SDS011;5393;48.728;9.140;2022-10-16T02:37:46;4.87;;;1.60;;
763;SDS011;5393;48.728;9.140;2022-10-16T02:40:31;2.77;;;1.60;;
763;SDS011;5393;48.728;9.140;2022-10-16T02:43:16;3.23;;;1.60;;
763;SDS011;5393;48.728;9.140;2022-10-16T02:46:00;7.90;;;1.40;;
763;SDS011;5393;48.728;9.140;2022-10-16T02:48:45;2.80;;;1.90;;
763;SDS011;5393;48.728;9.140;2022-10-16T02:51:30;2.70;;;1.73;;
763;SDS011;5393;48.728;9.140;2022-10-16T02:54:14;2.40;;;1.40;;
763;SDS011;5393;48.728;9.140;2022-10-16T02:56:59;2.40;;;1.50;;
763;SDS011;5393;48.728;9.140;2022-10-16T02:59:44;3.80;;;1.63;;
763;SDS011;5393;48.728;9.140;2022-10-16T03:02:28;3.70;;;1.53;;
763;SDS011;5393;48.728;9.140;2022-10-16T03:05:13;2.40;;;1.40;;
763;SDS011;5393;48.728;9.140;2022-10-16T03:07:58;3.20;;;1.40;;
763;SDS011;5393;48.728;9.140;2022-10-16T03:10:44;5.60;;;1.50;;
763;SDS011;5393;48.728;9.140;2022-10-16T03:13:29;3.27;;;1.60;;
763;SDS011;5393;48.728;9.140;2022-10-16T03:16:13;2.93;;;1.40;;
763;SDS011;5393;48.728;9.140;2022-10-16T03:18:58;3.50;;;1.00;;
763;SDS011;5393;48.728;9.140;2022-10-16T03:21:42;2.57;;;1.33;;
763;SDS011;5393;48.728;9.140;2022-10-16T03:24:27;1.83;;;1.20;;
763;SDS011;5393;48.728;9.140;2022-10-16T03:27:12;2.40;;;1.30;;
763;SDS011;5393;48.728;9.140;2022-10-16T03:29:56;2.10;;;1.07;;
763;SDS011;5393;48.728;9.140;2022-10-16T03:32:41;3.07;;;1.30;;
763;SDS011;5393;48.728;9.140;2022-10-16T03:35:25;2.80;;;1.27;;
763;SDS011;5393;48.728;9.140;2022-10-16T03:38:10;2.37;;;1.30;;
763;SDS011;5393;48.728;9.140;2022-10-16T03:40:54;3.63;;;1.30;;
763;SDS011;5393;48.728;9.140;2022-10-16T03:43:39;3.07;;;1.27;;
763;SDS011;5393;48.728;9.140;2022-10-16T03:46:24;2.87;;;1.23;;
763;SDS011;5393;48.728;9.140;2022-10-16T03:49:08;3.10;;;1.40;;
763;SDS011;5393;48.728;9.140;2022-10-16T03:51:53;3.97;;;1.50;;
763;SDS011;5393;48.728;9.140;2022-10-16T03:54:37;2.60;;;1.27;;
763;SDS011;5393;48.728;9.140;2022-10-16T03:57:22;2.80;;;1.40;;
763;SDS011;5393;48.728;9.140;2022-10-16T04:00:07;2.83;;;1.43;;
763;SDS011;5393;48.728;9.140;2022-10-16T04:02:52;2.57;;;1.20;;
763;SDS011;5393;48.728;9.140;2022-10-16T04:05:36;2.00;;;1.57;;
763;SDS011;5393;48.728;9.140;2022-10-16T04:08:21;5.23;;;1.50;;
763;SDS011;5393;48.728;9.140;2022-10-16T04:11:06;2.50;;;1.70;;
763;SDS011;5393;48.728;9.140;2022-10-16T04:13:50;2.47;;;1.33;;
763;SDS011;5393;48.728;9.140;2022-10-16T04:16:35;2.67;;;1.60;;
763;SDS011;5393;48.728;9.140;2022-10-16T04:19:21;2.23;;;1.57;;
763;SDS011;5393;48.728;9.140;2022-10-16T04:22:05;2.93;;;1.50;;
763;SDS011;5393;48.728;9.140;2022-10-16T04:24:50;4.03;;;2.03;;
763;SDS011;5393;48.728;9.140;2022-10-16T04:27:34;3.50;;;1.97;;
763;SDS011;5393;48.728;9.140;2022-10-16T04:30:19;3.30;;;1.73;;
763;SDS011;5393;48.728;9.140;2022-10-16T04:33:04;2.93;;;1.73;;
763;SDS011;5393;48.728;9.140;2022-10-16T04:35:55;12.40;;;1.97;;
763;SDS011;5393;48.728;9.140;2022-10-16T04:38:40;3.90;;;1.70;;
763;SDS011;5393;48.728;9.140;2022-10-16T04:41:24;2.83;;;1.47;;
763;SDS011;5393;48.728;9.140;2022-10-16T04:44:09;3.90;;;1.40;;
763;SDS011;5393;48.728;9.140;2022-10-16T04:46:54;2.10;;;1.13;;
763;SDS011;5393;48.728;9.140;2022-10-16T04:49:38;3.07;;;1.53;;
763;SDS011;5393;48.728;9.140;2022-10-16T04:52:23;2.47;;;1.30;;
763;SDS011;5393;48.728;9.140;2022-10-16T04:55:08;3.00;;;1.40;;
763;SDS011;5393;48.728;9.140;2022-10-16T04:57:53;2.60;;;1.30;;
763;SDS011;5393;48.728;9.140;2022-10-16T05:00:37;2.40;;;1.30;;
763;SDS011;5393;48.728;9.140;2022-10-16T05:03:22;2.00;;;1.20;;
763;SDS011;5393;48.728;9.140;2022-10-16T05:06:07;2.60;;;1.20;;
763;SDS011;5393;48.728;9.140;2022-10-16T05:08:51;2.73;;;1.40;;
763;SDS011;5393;48.728;9.140;2022-10-16T05:11:36;3.83;;;1.20;;
763;SDS011;5393;48.728;9.140;2022-10-16T05:14:20;4.10;;;1.83;;
763;SDS011;5393;48.728;9.140;2022-10-16T05:17:05;2.70;;;1.33;;
763;SDS011;5393;48.728;9.140;2022-10-16T05:19:49;2.50;;;1.70;;
763;SDS011;5393;48.728;9.140;2022-10-16T05:22:34;2.73;;;1.60;;
763;SDS011;5393;48.728;9.140;2022-10-16T05:25:18;2.00;;;1.30;;
763;SDS011;5393;48.728;9.140;2022-10-16T05:28:03;1.97;;;1.37;;
763;SDS011;5393;48.728;9.140;2022-10-16T05:30:51;3.83;;;1.50;;
763;SDS011;5393;48.728;9.140;2022-10-16T05:33:36;2.97;;;1.30;;
763;SDS011;5393;48.728;9.140;2022-10-16T05:36:20;3.67;;;1.73;;
763;SDS011;5393;48.728;9.140;2022-10-16T05:39:05;4.93;;;2.00;;
763;SDS011;5393;48.728;9.140;2022-10-16T05:41:49;2.80;;;1.73;;
763;SDS011;5393;48.728;9.140;2022-10-16T05:44:34;3.43;;;2.00;;
763;SDS011;5393;48.728;9.140;2022-10-16T05:47:19;3.20;;;1.80;;
763;SDS011;5393;48.728;9.140;2022-10-16T05:50:04;4.03;;;2.40;;
763;SDS011;5393;48.728;9.140;2022-10-16T05:52:49;2.90;;;1.90;;
763;SDS011;5393;48.728;9.140;2022-10-16T05:55:33;2.30;;;1.70;;
763;SDS011;5393;48.728;9.140;2022-10-16T05:58:17;3.40;;;1.87;;
763;SDS011;5393;48.728;9.140;2022-10-16T06:01:10;4.03;;;1.33;;
763;SDS011;5393;48.728;9.140;2022-10-16T06:03:55;3.93;;;2.00;;
763;SDS011;5393;48.728;9.140;2022-10-16T06:06:40;3.40;;;1.70;;
763;SDS011;5393;48.728;9.140;2022-10-16T06:09:24;3.70;;;1.67;;
763;SDS011;5393;48.728;9.140;2022-10-16T06:12:10;5.83;;;1.63;;
763;SDS011;5393;48.728;9.140;2022-10-16T06:14:54;4.27;;;2.27;;
763;SDS011;5393;48.728;9.140;2022-10-16T06:17:39;3.53;;;1.80;;
763;SDS011;5393;48.728;9.140;2022-10-16T06:20:26;3.63;;;1.93;;
763;SDS011;5393;48.728;9.140;2022-10-16T06:23:11;3.40;;;1.80;;
763;SDS011;5393;48.728;9.140;2022-10-16T06:26:12;2.40;;;1.60;;
763;SDS011;5393;48.728;9.140;2022-10-16T06:28:57;2.97;;;1.93;;
763;SDS011;5393;48.728;9.140;2022-10-16T06:31:42;5.60;;;2.03;;
763;SDS011;5393;48.728;9.140;2022-10-16T06:34:26;3.90;;;1.93;;
763;SDS011;5393;48.728;9.140;2022-10-16T06:37:11;3.13;;;1.70;;
763;SDS011;5393;48.728;9.140;2022-10-16T06:39:56;3.60;;;2.20;;
763;SDS011;5393;48.728;9.140;2022-10-16T06:42:41;2.70;;;2.30;;
763;SDS011;5393;48.728;9.140;2022-10-16T06:45:26;3.70;;;2.10;;
763;SDS011;5393;48.728;9.140;2022-10-16T06:48:10;7.37;;;2.07;;
763;SDS011;5393;48.728;9.140;2022-10-16T06:50:56;3.10;;;1.80;;
763;SDS011;5393;48.728;9.140;2022-10-16T06:53:41;2.90;;;1.60;;
763;SDS011;5393;48.728;9.140;2022-10-16T06:56:27;5.37;;;1.43;;
763;SDS011;5393;48.728;9.140;2022-10-16T06:59:13;3.63;;;1.80;;
763;SDS011;5393;48.728;9.140;2022-10-16T07:01:58;3.00;;;1.60;;
763;SDS011;5393;48.728;9.140;2022-10-16T07:04:42;2.33;;;1.30;;
763;SDS011;5393;48.728;9.140;2022-10-16T07:07:27;2.83;;;1.67;;
763;SDS011;5393;48.728;9.140;2022-10-16T07:10:11;2.37;;;1.40;;
763;SDS011;5393;48.728;9.140;2022-10-16T07:12:56;3.13;;;1.90;;
763;SDS011;5393;48.728;9.140;2022-10-16T07:15:41;3.20;;;2.00;;
763;SDS011;5393;48.728;9.140;2022-10-16T07:18:26;3.50;;;2.10;;
763;SDS011;5393;48.728;9.140;2022-10-16T07:21:13;2.90;;;1.67;;
763;SDS011;5393;48.728;9.140;2022-10-16T07:23:59;3.37;;;1.83;;
763;SDS011;5393;48.728;9.140;2022-10-16T07:26:47;3.20;;;2.60;;
763;SDS011;5393;48.728;9.140;2022-10-16T07:29:32;3.57;;;2.90;;
763;SDS011;5393;48.728;9.140;2022-10-16T07:32:17;5.23;;;2.23;;
763;SDS011;5393;48.728;9.140;2022-10-16T07:35:01;3.30;;;2.10;;
763;SDS011;5393;48.728;9.140;2022-10-16T07:37:46;3.60;;;2.43;;
763;SDS011;5393;48.728;9.140;2022-10-16T07:40:31;3.53;;;1.90;;
763;SDS011;5393;48.728;9.140;2022-10-16T07:43:15;3.00;;;1.87;;
763;SDS011;5393;48.728;9.140;2022-10-16T07:46:00;3.47;;;1.90;;
763;SDS011;5393;48.728;9.140;2022-10-16T07:48:45;5.90;;;1.87;;
763;SDS011;5393;48.728;9.140;2022-10-16T07:51:30;4.60;;;2.07;;
763;SDS011;5393;48.728;9.140;2022-10-16T07:54:15;3.60;;;2.23;;
763;SDS011;5393;48.728;9.140;2022-10-16T07:56:59;4.23;;;1.83;;
763;SDS011;5393;48.728;9.140;2022-10-16T07:59:44;2.53;;;1.03;;
763;SDS011;5393;48.728;9.140;2022-10-16T08:02:29;2.17;;;1.10;;
763;SDS011;5393;48.728;9.140;2022-10-16T08:05:14;2.83;;;1.17;;
763;SDS011;5393;48.728;9.140;2022-10-16T08:07:58;3.23;;;1.23;;
763;SDS011;5393;48.728;9.140;2022-10-16T08:10:43;3.07;;;1.43;;
763;SDS011;5393;48.728;9.140;2022-10-16T08:13:28;2.43;;;1.20;;
763;SDS011;5393;48.728;9.140;2022-10-16T08:16:12;2.17;;;1.20;;
763;SDS011;5393;48.728;9.140;2022-10-16T08:18:57;3.60;;;1.30;;
763;SDS011;5393;48.728;9.140;2022-10-16T08:21:42;1.70;;;1.00;;
763;SDS011;5393;48.728;9.140;2022-10-16T08:24:26;2.43;;;1.10;;
763;SDS011;5393;48.728;9.140;2022-10-16T08:27:11;9.60;;;1.90;;
763;SDS011;5393;48.728;9.140;2022-10-16T08:29:55;3.20;;;1.30;;
763;SDS011;5393;48.728;9.140;2022-10-16T08:32:40;2.63;;;1.10;;
763;SDS011;5393;48.728;9.140;2022-10-16T08:35:25;4.97;;;1.30;;
763;SDS011;5393;48.728;9.140;2022-10-16T08:38:10;2.30;;;1.73;;
763;SDS011;5393;48.728;9.140;2022-10-16T08:40:57;6.10;;;2.90;;
763;SDS011;5393;48.728;9.140;2022-10-16T08:47:02;2.00;;;1.20;;
763;SDS011;5393;48.728;9.140;2022-10-16T08:50:01;3.40;;;1.30;;
763;SDS011;5393;48.728;9.140;2022-10-16T08:52:46;4.70;;;1.20;;
763;SDS011;5393;48.728;9.140;2022-10-16T08:58:20;2.30;;;1.23;;
763;SDS011;5393;48.728;9.140;2022-10-16T09:01:12;2.63;;;1.17;;
763;SDS011;5393;48.728;9.140;2022-10-16T09:04:02;1.73;;;0.97;;
763;SDS011;5393;48.728;9.140;2022-10-16T09:13:00;2.70;;;1.20;;
763;SDS011;5393;48.728;9.140;2022-10-16T09:19:33;2.10;;;1.30;;
763;SDS011;5393;48.728;9.140;2022-10-16T09:21:46;2.87;;;1.00;;
763;SDS011;5393;48.728;9.140;2022-10-16T09:24:34;2.47;;;1.60;;
763;SDS011;5393;48.728;9.140;2022-10-16T09:27:18;2.10;;;1.20;;
763;SDS011;5393;48.728;9.140;2022-10-16T09:30:22;3.60;;;1.40;;
763;SDS011;5393;48.728;9.140;2022-10-16T09:33:07;2.67;;;1.33;;
763;SDS011;5393;48.728;9.140;2022-10-16T09:35:53;3.07;;;1.50;;
763;SDS011;5393;48.728;9.140;2022-10-16T09:38:38;2.73;;;1.40;;
763;SDS011;5393;48.728;9.140;2022-10-16T09:41:23;3.00;;;1.40;;
763;SDS011;5393;48.728;9.140;2022-10-16T09:44:19;2.50;;;1.70;;
763;SDS011;5393;48.728;9.140;2022-10-16T09:47:12;4.77;;;1.87;;
763;SDS011;5393;48.728;9.140;2022-10-16T09:50:00;3.50;;;1.20;;
763;SDS011;5393;48.728;9.140;2022-10-16T09:52:45;3.60;;;1.30;;
763;SDS011;5393;48.728;9.140;2022-10-16T09:55:30;2.80;;;1.03;;
763;SDS011;5393;48.728;9.140;2022-10-16T09:58:15;2.27;;;1.10;;
763;SDS011;5393;48.728;9.140;2022-10-16T10:00:59;2.63;;;1.30;;
763;SDS011;5393;48.728;9.140;2022-10-16T10:03:45;4.97;;;1.73;;
763;SDS011;5393;48.728;9.140;2022-10-16T10:06:34;3.03;;;1.40;;
763;SDS011;5393;48.728;9.140;2022-10-16T10:09:22;2.97;;;1.63;;
763;SDS011;5393;48.728;9.140;2022-10-16T10:12:18;4.17;;;1.23;;
763;SDS011;5393;48.728;9.140;2022-10-16T10:15:10;3.63;;;1.23;;
763;SDS011;5393;48.728;9.140;2022-10-16T10:17:57;1.70;;;1.13;;
763;SDS011;5393;48.728;9.140;2022-10-16T10:20:42;3.47;;;1.00;;
763;SDS011;5393;48.728;9.140;2022-10-16T10:23:26;2.27;;;1.23;;
763;SDS011;5393;48.728;9.140;2022-10-16T10:26:15;3.50;;;1.10;;
763;SDS011;5393;48.728;9.140;2022-10-16T10:31:58;5.03;;;1.93;;
763;SDS011;5393;48.728;9.140;2022-10-16T10:46:31;2.80;;;1.43;;
763;SDS011;5393;48.728;9.140;2022-10-16T10:49:20;4.67;;;2.40;;
763;SDS011;5393;48.728;9.140;2022-10-16T10:55:10;3.33;;;1.17;;
763;SDS011;5393;48.728;9.140;2022-10-16T11:06:46;2.53;;;1.10;;
763;SDS011;5393;48.728;9.140;2022-10-16T11:09:55;2.13;;;1.10;;
763;SDS011;5393;48.728;9.140;2022-10-16T11:12:39;3.00;;;1.70;;
763;SDS011;5393;48.728;9.140;2022-10-16T11:15:29;1.83;;;1.30;;
763;SDS011;5393;48.728;9.140;2022-10-16T11:18:16;1.50;;;1.10;;
763;SDS011;5393;48.728;9.140;2022-10-16T11:21:04;2.60;;;0.90;;
763;SDS011;5393;48.728;9.140;2022-10-16T11:23:58;2.10;;;1.10;;
763;SDS011;5393;48.728;9.140;2022-10-16T11:26:44;4.40;;;1.03;;
763;SDS011;5393;48.728;9.140;2022-10-16T11:29:30;1.73;;;1.00;;
763;SDS011;5393;48.728;9.140;2022-10-16T11:32:24;2.70;;;1.30;;
763;SDS011;5393;48.728;9.140;2022-10-16T11:35:14;1.90;;;0.97;;
763;SDS011;5393;48.728;9.140;2022-10-16T11:38:02;2.87;;;1.20;;
763;SDS011;5393;48.728;9.140;2022-10-16T11:40:48;2.67;;;1.07;;
763;SDS011;5393;48.728;9.140;2022-10-16T11:46:42;5.00;;;1.10;;
763;SDS011;5393;48.728;9.140;2022-10-16T11:49:30;2.40;;;1.40;;
763;SDS011;5393;48.728;9.140;2022-10-16T11:55:04;3.10;;;1.30;;
763;SDS011;5393;48.728;9.140;2022-10-16T11:57:51;1.70;;;0.83;;
763;SDS011;5393;48.728;9.140;2022-10-16T12:03:35;2.93;;;1.17;;
763;SDS011;5393;48.728;9.140;2022-10-16T12:06:30;2.00;;;0.93;;
763;SDS011;5393;48.728;9.140;2022-10-16T12:09:37;4.90;;;1.20;;
763;SDS011;5393;48.728;9.140;2022-10-16T12:12:25;5.43;;;0.93;;
763;SDS011;5393;48.728;9.140;2022-10-16T12:18:24;2.87;;;1.50;;
763;SDS011;5393;48.728;9.140;2022-10-16T12:21:09;1.50;;;1.00;;
763;SDS011;5393;48.728;9.140;2022-10-16T12:23:54;2.83;;;1.30;;
763;SDS011;5393;48.728;9.140;2022-10-16T12:26:40;1.50;;;1.00;;
763;SDS011;5393;48.728;9.140;2022-10-16T12:29:38;4.60;;;1.10;;
763;SDS011;5393;48.728;9.140;2022-10-16T12:32:31;3.00;;;1.40;;
763;SDS011;5393;48.728;9.140;2022-10-16T12:35:20;3.77;;;1.47;;
763;SDS011;5393;48.728;9.140;2022-10-16T12:41:02;2.27;;;1.40;;
763;SDS011;5393;48.728;9.140;2022-10-16T12:43:47;1.93;;;1.40;;
763;SDS011;5393;48.728;9.140;2022-10-16T12:49:30;2.00;;;0.90;;
763;SDS011;5393;48.728;9.140;2022-10-16T12:52:28;1.70;;;0.93;;
763;SDS011;5393;48.728;9.140;2022-10-16T12:55:19;1.67;;;1.17;;
763;SDS011;5393;48.728;9.140;2022-10-16T13:10:16;2.47;;;1.50;;
763;SDS011;5393;48.728;9.140;2022-10-16T13:16:25;2.80;;;1.40;;
763;SDS011;5393;48.728;9.140;2022-10-16T13:24:46;2.03;;;1.37;;
763;SDS011;5393;48.728;9.140;2022-10-16T13:30:36;1.60;;;1.10;;
763;SDS011;5393;48.728;9.140;2022-10-16T13:36:24;2.10;;;1.47;;
763;SDS011;5393;48.728;9.140;2022-10-16T13:39:13;3.10;;;1.20;;
763;SDS011;5393;48.728;9.140;2022-10-16T13:44:47;3.50;;;1.50;;
763;SDS011;5393;48.728;9.140;2022-10-16T13:47:32;4.80;;;1.70;;
763;SDS011;5393;48.728;9.140;2022-10-16T13:50:18;3.03;;;1.83;;
763;SDS011;5393;48.728;9.140;2022-10-16T13:53:04;2.13;;;1.10;;
763;SDS011;5393;48.728;9.140;2022-10-16T13:55:48;3.07;;;1.40;;
763;SDS011;5393;48.728;9.140;2022-10-16T13:58:33;2.20;;;1.70;;
763;SDS011;5393;48.728;9.140;2022-10-16T14:01:22;2.57;;;1.93;;
763;SDS011;5393;48.728;9.140;2022-10-16T14:04:09;2.20;;;1.30;;
763;SDS011;5393;48.728;9.140;2022-10-16T14:06:54;2.47;;;1.30;;
763;SDS011;5393;48.728;9.140;2022-10-16T14:09:39;1.93;;;1.50;;
763;SDS011;5393;48.728;9.140;2022-10-16T14:12:23;2.13;;;1.10;;
763;SDS011;5393;48.728;9.140;2022-10-16T14:15:15;2.03;;;1.37;;
763;SDS011;5393;48.728;9.140;2022-10-16T14:18:00;1.80;;;1.50;;
763;SDS011;5393;48.728;9.140;2022-10-16T14:20:46;2.40;;;1.37;;
763;SDS011;5393;48.728;9.140;2022-10-16T14:23:32;2.63;;;1.40;;
763;SDS011;5393;48.728;9.140;2022-10-16T14:26:19;2.23;;;1.47;;
763;SDS011;5393;48.728;9.140;2022-10-16T14:29:11;1.70;;;1.10;;
763;SDS011;5393;48.728;9.140;2022-10-16T14:31:57;4.43;;;1.50;;
763;SDS011;5393;48.728;9.140;2022-10-16T14:34:42;2.37;;;1.50;;
763;SDS011;5393;48.728;9.140;2022-10-16T14:37:36;1.73;;;1.27;;
763;SDS011;5393;48.728;9.140;2022-10-16T14:40:23;1.80;;;1.50;;
763;SDS011;5393;48.728;9.140;2022-10-16T14:43:14;2.90;;;1.20;;
763;SDS011;5393;48.728;9.140;2022-10-16T14:46:03;2.70;;;1.20;;
763;SDS011;5393;48.728;9.140;2022-10-16T14:48:50;2.03;;;1.60;;
763;SDS011;5393;48.728;9.140;2022-10-16T14:51:36;2.93;;;1.77;;
763;SDS011;5393;48.728;9.140;2022-10-16T14:54:21;3.73;;;1.20;;
763;SDS011;5393;48.728;9.140;2022-10-16T14:57:05;3.20;;;1.50;;
763;SDS011;5393;48.728;9.140;2022-10-16T14:59:58;3.40;;;3.10;;
763;SDS011;5393;48.728;9.140;2022-10-16T15:02:43;2.33;;;1.63;;
763;SDS011;5393;48.728;9.140;2022-10-16T15:05:28;4.73;;;1.80;;
763;SDS011;5393;48.728;9.140;2022-10-16T15:08:13;4.13;;;1.50;;
763;SDS011;5393;48.728;9.140;2022-10-16T15:10:58;2.23;;;1.13;;
763;SDS011;5393;48.728;9.140;2022-10-16T15:13:43;2.60;;;1.47;;
763;SDS011;5393;48.728;9.140;2022-10-16T15:16:28;2.23;;;1.40;;
763;SDS011;5393;48.728;9.140;2022-10-16T15:19:13;7.10;;;1.50;;
763;SDS011;5393;48.728;9.140;2022-10-16T15:21:58;2.23;;;1.40;;
763;SDS011;5393;48.728;9.140;2022-10-16T15:24:43;3.40;;;1.57;;
763;SDS011;5393;48.728;9.140;2022-10-16T15:27:28;4.93;;;1.80;;
763;SDS011;5393;48.728;9.140;2022-10-16T15:30:12;2.60;;;1.30;;
763;SDS011;5393;48.728;9.140;2022-10-16T15:32:57;2.90;;;1.67;;
763;SDS011;5393;48.728;9.140;2022-10-16T15:35:42;2.37;;;1.47;;
763;SDS011;5393;48.728;9.140;2022-10-16T15:38:27;2.63;;;1.37;;
763;SDS011;5393;48.728;9.140;2022-10-16T15:41:12;3.40;;;1.80;;
763;SDS011;5393;48.728;9.140;2022-10-16T15:43:56;2.63;;;1.63;;
763;SDS011;5393;48.728;9.140;2022-10-16T15:46:41;3.00;;;1.93;;
763;SDS011;5393;48.728;9.140;2022-10-16T15:49:26;2.43;;;2.13;;
763;SDS011;5393;48.728;9.140;2022-10-16T15:52:10;5.83;;;2.20;;
763;SDS011;5393;48.728;9.140;2022-10-16T15:54:55;3.47;;;2.67;;
763;SDS011;5393;48.728;9.140;2022-10-16T15:57:40;2.57;;;2.37;;
763;SDS011;5393;48.728;9.140;2022-10-16T16:00:26;4.20;;;2.10;;
763;SDS011;5393;48.728;9.140;2022-10-16T16:03:11;2.30;;;1.90;;
763;SDS011;5393;48.728;9.140;2022-10-16T16:05:55;3.27;;;2.40;;
763;SDS011;5393;48.728;9.140;2022-10-16T16:08:43;3.40;;;2.27;;
763;SDS011;5393;48.728;9.140;2022-10-16T16:11:27;2.90;;;2.43;;
763;SDS011;5393;48.728;9.140;2022-10-16T16:14:13;3.00;;;1.90;;
763;SDS011;5393;48.728;9.140;2022-10-16T16:16:58;4.80;;;2.10;;
763;SDS011;5393;48.728;9.140;2022-10-16T16:19:43;3.10;;;2.10;;
763;SDS011;5393;48.728;9.140;2022-10-16T16:22:28;2.90;;;2.37;;
763;SDS011;5393;48.728;9.140;2022-10-16T16:25:12;3.77;;;2.57;;
763;SDS011;5393;48.728;9.140;2022-10-16T16:27:57;5.40;;;2.67;;
763;SDS011;5393;48.728;9.140;2022-10-16T16:30:41;3.73;;;2.97;;
763;SDS011;5393;48.728;9.140;2022-10-16T16:33:26;5.67;;;4.40;;
763;SDS011;5393;48.728;9.140;2022-10-16T16:36:11;7.90;;;6.23;;
763;SDS011;5393;48.728;9.140;2022-10-16T16:38:56;9.40;;;4.80;;
763;SDS011;5393;48.728;9.140;2022-10-16T16:41:40;4.80;;;4.10;;
763;SDS011;5393;48.728;9.140;2022-10-16T16:44:25;4.47;;;4.03;;
763;SDS011;5393;48.728;9.140;2022-10-16T16:47:09;4.53;;;3.63;;
763;SDS011;5393;48.728;9.140;2022-10-16T16:49:54;4.80;;;3.73;;
763;SDS011;5393;48.728;9.140;2022-10-16T16:52:39;5.00;;;3.73;;
763;SDS011;5393;48.728;9.140;2022-10-16T16:55:23;4.10;;;3.20;;
763;SDS011;5393;48.728;9.140;2022-10-16T16:58:08;4.07;;;3.67;;
763;SDS011;5393;48.728;9.140;2022-10-16T17:00:52;10.37;;;6.63;;
763;SDS011;5393;48.728;9.140;2022-10-16T17:03:37;9.17;;;5.50;;
763;SDS011;5393;48.728;9.140;2022-10-16T17:06:26;6.17;;;4.20;;
763;SDS011;5393;48.728;9.140;2022-10-16T17:09:11;5.17;;;3.17;;
763;SDS011;5393;48.728;9.140;2022-10-16T17:11:56;4.80;;;3.30;;
763;SDS011;5393;48.728;9.140;2022-10-16T17:14:41;4.57;;;2.90;;
763;SDS011;5393;48.728;9.140;2022-10-16T17:17:26;4.60;;;2.93;;
763;SDS011;5393;48.728;9.140;2022-10-16T17:20:10;4.23;;;3.60;;
763;SDS011;5393;48.728;9.140;2022-10-16T17:22:54;5.47;;;3.10;;
763;SDS011;5393;48.728;9.140;2022-10-16T17:25:40;5.73;;;2.83;;
763;SDS011;5393;48.728;9.140;2022-10-16T17:28:25;5.83;;;2.90;;
763;SDS011;5393;48.728;9.140;2022-10-16T17:31:11;6.10;;;2.90;;
763;SDS011;5393;48.728;9.140;2022-10-16T17:33:56;4.67;;;3.53;;
763;SDS011;5393;48.728;9.140;2022-10-16T17:36:44;6.10;;;5.00;;
763;SDS011;5393;48.728;9.140;2022-10-16T17:39:29;5.40;;;3.70;;
763;SDS011;5393;48.728;9.140;2022-10-16T17:42:13;5.20;;;3.73;;
763;SDS011;5393;48.728;9.140;2022-10-16T17:44:58;4.33;;;3.50;;
763;SDS011;5393;48.728;9.140;2022-10-16T17:47:42;8.43;;;3.37;;
763;SDS011;5393;48.728;9.140;2022-10-16T17:50:27;4.63;;;3.67;;
763;SDS011;5393;48.728;9.140;2022-10-16T17:53:12;6.07;;;5.17;;
763;SDS011;5393;48.728;9.140;2022-10-16T17:56:04;5.53;;;3.97;;
763;SDS011;5393;48.728;9.140;2022-10-16T17:58:49;5.00;;;4.37;;
763;SDS011;5393;48.728;9.140;2022-10-16T18:01:35;5.67;;;3.70;;
763;SDS011;5393;48.728;9.140;2022-10-16T18:04:22;4.90;;;4.10;;
763;SDS011;5393;48.728;9.140;2022-10-16T18:07:07;7.50;;;3.50;;
763;SDS011;5393;48.728;9.140;2022-10-16T18:09:52;5.83;;;3.90;;
763;SDS011;5393;48.728;9.140;2022-10-16T18:12:36;6.37;;;5.23;;
763;SDS011;5393;48.728;9.140;2022-10-16T18:15:21;7.63;;;4.50;;
763;SDS011;5393;48.728;9.140;2022-10-16T18:18:06;8.93;;;4.53;;
763;SDS011;5393;48.728;9.140;2022-10-16T18:20:57;9.83;;;4.50;;
763;SDS011;5393;48.728;9.140;2022-10-16T18:23:42;6.73;;;4.30;;
763;SDS011;5393;48.728;9.140;2022-10-16T18:26:30;6.53;;;3.70;;
763;SDS011;5393;48.728;9.140;2022-10-16T18:29:15;6.20;;;4.40;;
763;SDS011;5393;48.728;9.140;2022-10-16T18:32:00;6.13;;;3.40;;
763;SDS011;5393;48.728;9.140;2022-10-16T18:34:45;7.27;;;3.20;;
763;SDS011;5393;48.728;9.140;2022-10-16T18:37:29;3.83;;;3.10;;
763;SDS011;5393;48.728;9.140;2022-10-16T18:40:22;6.37;;;2.90;;
763;SDS011;5393;48.728;9.140;2022-10-16T18:43:06;4.40;;;2.60;;
763;SDS011;5393;48.728;9.140;2022-10-16T18:45:58;5.97;;;3.40;;
763;SDS011;5393;48.728;9.140;2022-10-16T18:48:43;3.80;;;2.63;;
763;SDS011;5393;48.728;9.140;2022-10-16T18:51:29;4.60;;;3.00;;
763;SDS011;5393;48.728;9.140;2022-10-16T18:54:15;6.73;;;3.37;;
763;SDS011;5393;48.728;9.140;2022-10-16T18:56:59;6.03;;;3.00;;
763;SDS011;5393;48.728;9.140;2022-10-16T18:59:44;4.80;;;2.60;;
763;SDS011;5393;48.728;9.140;2022-10-16T19:02:29;4.60;;;2.53;;
763;SDS011;5393;48.728;9.140;2022-10-16T19:05:13;4.90;;;2.73;;